Whitefish, Montana
Current Conditions -  °F | °C
As of 9:55 AM on Friday 24 Oct 2014 (Local Time) from KGPI Reporting Station
Scattered Clouds Scattered Clouds  
Wind Chill: 46°   Ceiling: Unl
Heat Index: 46°   Visibility: 10mi
Dew Point: 37°   Wind: 3mph
Humidity: 71%   Direction: 210°SSW
Pressure: 30.09"   Gusts: NA
Location:  48.41°N, 114.34°W
Report Text: KGPI 241555Z 21003KT 10SM SCT110 08/03 A3009 RMK AO2 SLP197 T00780028
Loading
Personal Weather Stations






























Interactive Weather Map
Tropical Storm Tracking
New forecast layout! Learn more

10-Day Weather Forecast

Advertisements
Track Severe Weather on mobile